sensor_id;sensor_type;location;lat;lon;timestamp;P1;durP1;ratioP1;P2;durP2;ratioP2
81498;SDS011;70904;52.360;5.198;2023-07-09T00:00:50;10.27;;;6.70;;
81498;SDS011;70904;52.360;5.198;2023-07-09T00:03:17;8.45;;;6.07;;
81498;SDS011;70904;52.360;5.198;2023-07-09T00:05:43;11.02;;;6.65;;
81498;SDS011;70904;52.360;5.198;2023-07-09T00:08:33;12.85;;;6.75;;
81498;SDS011;70904;52.360;5.198;2023-07-09T00:10:58;11.50;;;6.80;;
81498;SDS011;70904;52.360;5.198;2023-07-09T00:13:24;12.27;;;6.63;;
81498;SDS011;70904;52.360;5.198;2023-07-09T00:15:51;11.32;;;6.75;;
81498;SDS011;70904;52.360;5.198;2023-07-09T00:18:17;8.65;;;6.03;;
81498;SDS011;70904;52.360;5.198;2023-07-09T00:20:43;9.25;;;6.63;;
81498;SDS011;70904;52.360;5.198;2023-07-09T00:23:09;8.52;;;6.32;;
81498;SDS011;70904;52.360;5.198;2023-07-09T00:25:38;8.98;;;6.35;;
81498;SDS011;70904;52.360;5.198;2023-07-09T00:28:11;11.20;;;6.82;;
81498;SDS011;70904;52.360;5.198;2023-07-09T00:30:41;9.30;;;6.20;;
81498;SDS011;70904;52.360;5.198;2023-07-09T00:33:09;9.43;;;6.32;;
81498;SDS011;70904;52.360;5.198;2023-07-09T00:35:39;8.48;;;5.75;;
81498;SDS011;70904;52.360;5.198;2023-07-09T00:38:07;10.23;;;6.97;;
81498;SDS011;70904;52.360;5.198;2023-07-09T00:40:37;11.70;;;6.25;;
81498;SDS011;70904;52.360;5.198;2023-07-09T00:43:04;8.77;;;6.37;;
81498;SDS011;70904;52.360;5.198;2023-07-09T00:45:39;9.13;;;5.80;;
81498;SDS011;70904;52.360;5.198;2023-07-09T00:48:05;12.52;;;6.78;;
81498;SDS011;70904;52.360;5.198;2023-07-09T00:50:41;10.10;;;6.57;;
81498;SDS011;70904;52.360;5.198;2023-07-09T00:53:15;12.23;;;7.10;;
81498;SDS011;70904;52.360;5.198;2023-07-09T00:55:46;9.70;;;6.75;;
81498;SDS011;70904;52.360;5.198;2023-07-09T00:58:18;11.75;;;6.38;;
81498;SDS011;70904;52.360;5.198;2023-07-09T01:00:47;11.50;;;6.78;;
81498;SDS011;70904;52.360;5.198;2023-07-09T01:03:23;10.77;;;6.63;;
81498;SDS011;70904;52.360;5.198;2023-07-09T01:05:54;11.65;;;6.53;;
81498;SDS011;70904;52.360;5.198;2023-07-09T01:08:22;9.77;;;6.30;;
81498;SDS011;70904;52.360;5.198;2023-07-09T01:10:49;11.00;;;6.40;;
81498;SDS011;70904;52.360;5.198;2023-07-09T01:13:15;10.80;;;6.03;;
81498;SDS011;70904;52.360;5.198;2023-07-09T01:15:41;11.48;;;6.80;;
81498;SDS011;70904;52.360;5.198;2023-07-09T01:18:07;9.40;;;6.43;;
81498;SDS011;70904;52.360;5.198;2023-07-09T01:20:35;10.15;;;6.28;;
81498;SDS011;70904;52.360;5.198;2023-07-09T01:23:00;9.90;;;6.83;;
81498;SDS011;70904;52.360;5.198;2023-07-09T01:25:26;10.68;;;5.88;;
81498;SDS011;70904;52.360;5.198;2023-07-09T01:27:53;9.10;;;5.70;;
81498;SDS011;70904;52.360;5.198;2023-07-09T01:30:22;10.45;;;6.05;;
81498;SDS011;70904;52.360;5.198;2023-07-09T01:32:55;9.05;;;5.93;;
81498;SDS011;70904;52.360;5.198;2023-07-09T01:35:23;10.95;;;6.13;;
81498;SDS011;70904;52.360;5.198;2023-07-09T01:37:52;8.38;;;5.97;;
81498;SDS011;70904;52.360;5.198;2023-07-09T01:40:19;9.30;;;6.35;;
81498;SDS011;70904;52.360;5.198;2023-07-09T01:42:46;10.50;;;6.70;;
81498;SDS011;70904;52.360;5.198;2023-07-09T01:45:12;12.97;;;6.17;;
81498;SDS011;70904;52.360;5.198;2023-07-09T01:47:38;10.10;;;6.30;;
81498;SDS011;70904;52.360;5.198;2023-07-09T01:50:05;11.23;;;6.63;;
81498;SDS011;70904;52.360;5.198;2023-07-09T01:52:31;11.88;;;6.65;;
81498;SDS011;70904;52.360;5.198;2023-07-09T01:54:58;9.45;;;6.55;;
81498;SDS011;70904;52.360;5.198;2023-07-09T01:57:24;9.73;;;6.82;;
81498;SDS011;70904;52.360;5.198;2023-07-09T02:00:00;8.93;;;5.93;;
81498;SDS011;70904;52.360;5.198;2023-07-09T02:02:35;9.88;;;6.10;;
81498;SDS011;70904;52.360;5.198;2023-07-09T02:05:03;9.27;;;6.30;;
81498;SDS011;70904;52.360;5.198;2023-07-09T02:07:29;10.32;;;6.38;;
81498;SDS011;70904;52.360;5.198;2023-07-09T02:09:55;10.67;;;6.03;;
81498;SDS011;70904;52.360;5.198;2023-07-09T02:12:20;9.98;;;6.38;;
81498;SDS011;70904;52.360;5.198;2023-07-09T02:14:46;9.88;;;6.85;;
81498;SDS011;70904;52.360;5.198;2023-07-09T02:17:12;8.07;;;6.30;;
81498;SDS011;70904;52.360;5.198;2023-07-09T02:19:39;8.68;;;5.78;;
81498;SDS011;70904;52.360;5.198;2023-07-09T02:22:05;9.52;;;6.28;;
81498;SDS011;70904;52.360;5.198;2023-07-09T02:24:31;9.68;;;6.65;;
81498;SDS011;70904;52.360;5.198;2023-07-09T02:26:57;9.95;;;6.03;;
81498;SDS011;70904;52.360;5.198;2023-07-09T02:29:24;9.50;;;6.30;;
81498;SDS011;70904;52.360;5.198;2023-07-09T02:31:51;9.75;;;6.10;;
81498;SDS011;70904;52.360;5.198;2023-07-09T02:34:18;12.43;;;6.32;;
81498;SDS011;70904;52.360;5.198;2023-07-09T02:36:44;12.65;;;7.28;;
81498;SDS011;70904;52.360;5.198;2023-07-09T02:39:10;8.73;;;6.32;;
81498;SDS011;70904;52.360;5.198;2023-07-09T02:41:36;9.93;;;6.57;;
81498;SDS011;70904;52.360;5.198;2023-07-09T02:44:02;10.30;;;6.22;;
81498;SDS011;70904;52.360;5.198;2023-07-09T02:46:28;12.00;;;6.82;;
81498;SDS011;70904;52.360;5.198;2023-07-09T02:48:53;10.57;;;6.70;;
81498;SDS011;70904;52.360;5.198;2023-07-09T02:51:19;10.10;;;6.28;;
81498;SDS011;70904;52.360;5.198;2023-07-09T02:53:44;10.70;;;7.00;;
81498;SDS011;70904;52.360;5.198;2023-07-09T02:56:09;11.83;;;6.40;;
81498;SDS011;70904;52.360;5.198;2023-07-09T02:58:35;11.30;;;6.37;;
81498;SDS011;70904;52.360;5.198;2023-07-09T03:01:00;11.60;;;7.40;;
81498;SDS011;70904;52.360;5.198;2023-07-09T03:03:26;11.35;;;8.10;;
81498;SDS011;70904;52.360;5.198;2023-07-09T03:05:53;11.50;;;7.47;;
81498;SDS011;70904;52.360;5.198;2023-07-09T03:08:18;9.25;;;7.32;;
81498;SDS011;70904;52.360;5.198;2023-07-09T03:10:44;11.43;;;7.60;;
81498;SDS011;70904;52.360;5.198;2023-07-09T03:13:09;13.00;;;7.47;;
81498;SDS011;70904;52.360;5.198;2023-07-09T03:15:34;9.93;;;7.60;;
81498;SDS011;70904;52.360;5.198;2023-07-09T03:18:00;10.93;;;6.40;;
81498;SDS011;70904;52.360;5.198;2023-07-09T03:20:25;7.45;;;6.25;;
81498;SDS011;70904;52.360;5.198;2023-07-09T03:22:50;9.50;;;6.90;;
81498;SDS011;70904;52.360;5.198;2023-07-09T03:25:16;10.35;;;7.07;;
81498;SDS011;70904;52.360;5.198;2023-07-09T03:27:41;11.38;;;7.68;;
81498;SDS011;70904;52.360;5.198;2023-07-09T03:30:07;11.80;;;7.50;;
81498;SDS011;70904;52.360;5.198;2023-07-09T03:32:32;12.13;;;7.03;;
81498;SDS011;70904;52.360;5.198;2023-07-09T03:34:58;13.47;;;7.80;;
81498;SDS011;70904;52.360;5.198;2023-07-09T03:37:23;11.60;;;7.43;;
81498;SDS011;70904;52.360;5.198;2023-07-09T03:39:48;11.90;;;7.67;;
81498;SDS011;70904;52.360;5.198;2023-07-09T03:42:14;10.55;;;6.70;;
81498;SDS011;70904;52.360;5.198;2023-07-09T03:44:39;12.82;;;7.72;;
81498;SDS011;70904;52.360;5.198;2023-07-09T03:47:05;10.80;;;7.38;;
81498;SDS011;70904;52.360;5.198;2023-07-09T03:49:31;10.40;;;7.07;;
81498;SDS011;70904;52.360;5.198;2023-07-09T03:51:57;9.60;;;7.57;;
81498;SDS011;70904;52.360;5.198;2023-07-09T03:54:22;11.57;;;7.30;;
81498;SDS011;70904;52.360;5.198;2023-07-09T03:56:47;10.97;;;7.33;;
81498;SDS011;70904;52.360;5.198;2023-07-09T03:59:13;16.07;;;7.73;;
81498;SDS011;70904;52.360;5.198;2023-07-09T04:01:38;10.10;;;6.90;;
81498;SDS011;70904;52.360;5.198;2023-07-09T04:04:03;10.13;;;7.47;;
81498;SDS011;70904;52.360;5.198;2023-07-09T04:06:29;10.00;;;6.95;;
81498;SDS011;70904;52.360;5.198;2023-07-09T04:08:54;10.10;;;7.25;;
81498;SDS011;70904;52.360;5.198;2023-07-09T04:11:19;12.00;;;7.33;;
81498;SDS011;70904;52.360;5.198;2023-07-09T04:13:45;11.07;;;8.70;;
81498;SDS011;70904;52.360;5.198;2023-07-09T04:16:10;12.00;;;7.30;;
81498;SDS011;70904;52.360;5.198;2023-07-09T04:18:37;11.32;;;7.35;;
81498;SDS011;70904;52.360;5.198;2023-07-09T04:21:02;12.80;;;6.72;;
81498;SDS011;70904;52.360;5.198;2023-07-09T04:23:28;10.40;;;6.97;;
81498;SDS011;70904;52.360;5.198;2023-07-09T04:25:53;9.37;;;6.67;;
81498;SDS011;70904;52.360;5.198;2023-07-09T04:28:19;12.83;;;7.43;;
81498;SDS011;70904;52.360;5.198;2023-07-09T04:30:48;13.23;;;7.50;;
81498;SDS011;70904;52.360;5.198;2023-07-09T04:33:14;9.68;;;7.18;;
81498;SDS011;70904;52.360;5.198;2023-07-09T04:35:43;9.63;;;7.63;;
81498;SDS011;70904;52.360;5.198;2023-07-09T04:38:09;10.88;;;7.60;;
81498;SDS011;70904;52.360;5.198;2023-07-09T04:40:34;13.65;;;7.63;;
81498;SDS011;70904;52.360;5.198;2023-07-09T04:43:00;9.32;;;7.47;;
81498;SDS011;70904;52.360;5.198;2023-07-09T04:45:26;10.98;;;6.57;;
81498;SDS011;70904;52.360;5.198;2023-07-09T04:47:51;10.50;;;7.60;;
81498;SDS011;70904;52.360;5.198;2023-07-09T04:50:17;11.82;;;7.55;;
81498;SDS011;70904;52.360;5.198;2023-07-09T04:52:43;12.75;;;7.65;;
81498;SDS011;70904;52.360;5.198;2023-07-09T04:55:09;12.13;;;7.53;;
81498;SDS011;70904;52.360;5.198;2023-07-09T04:57:34;12.32;;;7.60;;
81498;SDS011;70904;52.360;5.198;2023-07-09T05:00:00;12.32;;;7.85;;
81498;SDS011;70904;52.360;5.198;2023-07-09T05:02:25;12.80;;;8.32;;
81498;SDS011;70904;52.360;5.198;2023-07-09T05:04:51;9.35;;;7.35;;
81498;SDS011;70904;52.360;5.198;2023-07-09T05:07:17;11.80;;;7.75;;
81498;SDS011;70904;52.360;5.198;2023-07-09T05:09:42;12.77;;;7.97;;
81498;SDS011;70904;52.360;5.198;2023-07-09T05:12:08;11.63;;;7.57;;
81498;SDS011;70904;52.360;5.198;2023-07-09T05:14:34;10.88;;;7.93;;
81498;SDS011;70904;52.360;5.198;2023-07-09T05:16:59;10.95;;;8.45;;
81498;SDS011;70904;52.360;5.198;2023-07-09T05:19:24;13.07;;;7.97;;
81498;SDS011;70904;52.360;5.198;2023-07-09T05:21:50;10.55;;;7.95;;
81498;SDS011;70904;52.360;5.198;2023-07-09T05:24:15;11.75;;;8.35;;
81498;SDS011;70904;52.360;5.198;2023-07-09T05:26:40;11.10;;;7.67;;
81498;SDS011;70904;52.360;5.198;2023-07-09T05:29:06;11.15;;;8.50;;
81498;SDS011;70904;52.360;5.198;2023-07-09T05:31:32;11.20;;;8.05;;
81498;SDS011;70904;52.360;5.198;2023-07-09T05:34:00;10.50;;;8.35;;
81498;SDS011;70904;52.360;5.198;2023-07-09T05:36:26;11.77;;;8.63;;
81498;SDS011;70904;52.360;5.198;2023-07-09T05:38:52;11.77;;;7.57;;
81498;SDS011;70904;52.360;5.198;2023-07-09T05:41:18;11.80;;;8.40;;
81498;SDS011;70904;52.360;5.198;2023-07-09T05:43:44;11.18;;;8.57;;
81498;SDS011;70904;52.360;5.198;2023-07-09T05:46:09;11.27;;;7.80;;
81498;SDS011;70904;52.360;5.198;2023-07-09T05:48:35;11.40;;;7.82;;
81498;SDS011;70904;52.360;5.198;2023-07-09T05:51:01;12.25;;;8.32;;
81498;SDS011;70904;52.360;5.198;2023-07-09T05:53:26;11.90;;;8.40;;
81498;SDS011;70904;52.360;5.198;2023-07-09T05:55:55;11.67;;;8.27;;
81498;SDS011;70904;52.360;5.198;2023-07-09T05:58:21;12.27;;;8.35;;
81498;SDS011;70904;52.360;5.198;2023-07-09T06:00:49;13.05;;;8.27;;
81498;SDS011;70904;52.360;5.198;2023-07-09T06:03:19;11.55;;;8.68;;
81498;SDS011;70904;52.360;5.198;2023-07-09T06:05:46;11.10;;;8.73;;
81498;SDS011;70904;52.360;5.198;2023-07-09T06:08:14;12.30;;;9.18;;
81498;SDS011;70904;52.360;5.198;2023-07-09T06:10:40;10.82;;;8.05;;
81498;SDS011;70904;52.360;5.198;2023-07-09T06:13:15;11.65;;;7.50;;
81498;SDS011;70904;52.360;5.198;2023-07-09T06:15:41;10.80;;;8.33;;
81498;SDS011;70904;52.360;5.198;2023-07-09T06:18:06;12.07;;;8.10;;
81498;SDS011;70904;52.360;5.198;2023-07-09T06:20:31;10.47;;;7.83;;
81498;SDS011;70904;52.360;5.198;2023-07-09T06:22:56;11.13;;;8.13;;
81498;SDS011;70904;52.360;5.198;2023-07-09T06:25:22;12.70;;;7.90;;
81498;SDS011;70904;52.360;5.198;2023-07-09T06:27:47;11.77;;;8.33;;
81498;SDS011;70904;52.360;5.198;2023-07-09T06:30:12;12.80;;;7.87;;
81498;SDS011;70904;52.360;5.198;2023-07-09T06:32:39;13.13;;;9.77;;
81498;SDS011;70904;52.360;5.198;2023-07-09T06:35:04;13.70;;;9.53;;
81498;SDS011;70904;52.360;5.198;2023-07-09T06:37:29;12.80;;;8.20;;
81498;SDS011;70904;52.360;5.198;2023-07-09T06:39:55;14.07;;;8.25;;
81498;SDS011;70904;52.360;5.198;2023-07-09T06:42:20;10.40;;;8.43;;
81498;SDS011;70904;52.360;5.198;2023-07-09T06:44:45;12.03;;;8.27;;
81498;SDS011;70904;52.360;5.198;2023-07-09T06:47:11;11.40;;;8.70;;
81498;SDS011;70904;52.360;5.198;2023-07-09T06:49:36;12.40;;;9.67;;
81498;SDS011;70904;52.360;5.198;2023-07-09T06:52:01;15.70;;;9.43;;
81498;SDS011;70904;52.360;5.198;2023-07-09T06:54:27;12.15;;;8.02;;
81498;SDS011;70904;52.360;5.198;2023-07-09T06:56:52;11.47;;;8.93;;
81498;SDS011;70904;52.360;5.198;2023-07-09T06:59:17;11.63;;;7.37;;
81498;SDS011;70904;52.360;5.198;2023-07-09T07:01:43;11.53;;;8.47;;
81498;SDS011;70904;52.360;5.198;2023-07-09T07:04:08;13.57;;;9.60;;
81498;SDS011;70904;52.360;5.198;2023-07-09T07:06:33;13.83;;;9.97;;
81498;SDS011;70904;52.360;5.198;2023-07-09T07:08:59;16.05;;;10.50;;
81498;SDS011;70904;52.360;5.198;2023-07-09T07:11:25;15.10;;;10.80;;
81498;SDS011;70904;52.360;5.198;2023-07-09T07:13:54;14.80;;;10.70;;
81498;SDS011;70904;52.360;5.198;2023-07-09T07:16:20;14.68;;;11.00;;
81498;SDS011;70904;52.360;5.198;2023-07-09T07:18:45;13.32;;;9.90;;
81498;SDS011;70904;52.360;5.198;2023-07-09T07:21:11;13.57;;;9.27;;
81498;SDS011;70904;52.360;5.198;2023-07-09T07:23:36;13.17;;;9.20;;
81498;SDS011;70904;52.360;5.198;2023-07-09T07:26:02;19.77;;;10.57;;
81498;SDS011;70904;52.360;5.198;2023-07-09T07:28:28;15.48;;;12.02;;
81498;SDS011;70904;52.360;5.198;2023-07-09T07:30:57;16.52;;;11.77;;
81498;SDS011;70904;52.360;5.198;2023-07-09T07:33:23;19.25;;;12.27;;
81498;SDS011;70904;52.360;5.198;2023-07-09T07:35:49;19.33;;;14.50;;
81498;SDS011;70904;52.360;5.198;2023-07-09T07:38:20;24.13;;;17.37;;
81498;SDS011;70904;52.360;5.198;2023-07-09T07:40:45;21.60;;;19.02;;
81498;SDS011;70904;52.360;5.198;2023-07-09T07:43:11;22.60;;;17.65;;
81498;SDS011;70904;52.360;5.198;2023-07-09T07:45:40;23.50;;;19.00;;
81498;SDS011;70904;52.360;5.198;2023-07-09T07:48:06;22.48;;;20.10;;
81498;SDS011;70904;52.360;5.198;2023-07-09T07:50:31;21.85;;;19.58;;
81498;SDS011;70904;52.360;5.198;2023-07-09T07:52:57;22.50;;;19.63;;
81498;SDS011;70904;52.360;5.198;2023-07-09T07:55:22;22.02;;;18.38;;
81498;SDS011;70904;52.360;5.198;2023-07-09T07:57:47;23.02;;;18.02;;
81498;SDS011;70904;52.360;5.198;2023-07-09T08:00:13;25.03;;;19.57;;
81498;SDS011;70904;52.360;5.198;2023-07-09T08:02:39;22.15;;;19.40;;
81498;SDS011;70904;52.360;5.198;2023-07-09T08:05:04;21.57;;;18.00;;
81498;SDS011;70904;52.360;5.198;2023-07-09T08:07:30;19.63;;;17.48;;
81498;SDS011;70904;52.360;5.198;2023-07-09T08:09:55;22.58;;;19.08;;
81498;SDS011;70904;52.360;5.198;2023-07-09T08:12:21;20.37;;;17.57;;
81498;SDS011;70904;52.360;5.198;2023-07-09T08:14:46;20.77;;;16.87;;
81498;SDS011;70904;52.360;5.198;2023-07-09T08:17:11;20.50;;;17.00;;
81498;SDS011;70904;52.360;5.198;2023-07-09T08:19:47;19.67;;;16.05;;
81498;SDS011;70904;52.360;5.198;2023-07-09T08:22:14;20.85;;;14.82;;
81498;SDS011;70904;52.360;5.198;2023-07-09T08:24:40;20.25;;;16.55;;
81498;SDS011;70904;52.360;5.198;2023-07-09T08:27:06;19.50;;;14.95;;
81498;SDS011;70904;52.360;5.198;2023-07-09T08:29:32;16.38;;;13.50;;
81498;SDS011;70904;52.360;5.198;2023-07-09T08:31:57;16.38;;;14.05;;
81498;SDS011;70904;52.360;5.198;2023-07-09T08:34:23;15.70;;;13.33;;
81498;SDS011;70904;52.360;5.198;2023-07-09T08:36:48;16.23;;;14.10;;
81498;SDS011;70904;52.360;5.198;2023-07-09T08:39:13;20.53;;;15.47;;
81498;SDS011;70904;52.360;5.198;2023-07-09T08:41:45;16.95;;;14.48;;
81498;SDS011;70904;52.360;5.198;2023-07-09T08:49:38;17.10;;;14.77;;
81498;SDS011;70904;52.360;5.198;2023-07-09T08:52:15;20.27;;;14.70;;
81498;SDS011;70904;52.360;5.198;2023-07-09T08:57:24;18.27;;;14.63;;
81498;SDS011;70904;52.360;5.198;2023-07-09T08:59:53;14.63;;;12.35;;
81498;SDS011;70904;52.360;5.198;2023-07-09T09:05:33;14.65;;;11.05;;
81498;SDS011;70904;52.360;5.198;2023-07-09T09:10:57;15.48;;;9.25;;
81498;SDS011;70904;52.360;5.198;2023-07-09T09:13:27;11.50;;;8.38;;
81498;SDS011;70904;52.360;5.198;2023-07-09T09:15:55;10.32;;;8.38;;
81498;SDS011;70904;52.360;5.198;2023-07-09T09:18:26;10.88;;;9.02;;
81498;SDS011;70904;52.360;5.198;2023-07-09T09:20:55;11.40;;;9.13;;
81498;SDS011;70904;52.360;5.198;2023-07-09T09:23:22;10.05;;;8.52;;
81498;SDS011;70904;52.360;5.198;2023-07-09T09:25:54;14.57;;;10.63;;
81498;SDS011;70904;52.360;5.198;2023-07-09T09:28:23;13.82;;;9.23;;
81498;SDS011;70904;52.360;5.198;2023-07-09T09:30:50;13.77;;;11.13;;
81498;SDS011;70904;52.360;5.198;2023-07-09T09:33:16;14.27;;;9.77;;
81498;SDS011;70904;52.360;5.198;2023-07-09T09:35:43;12.32;;;9.32;;
81498;SDS011;70904;52.360;5.198;2023-07-09T09:38:17;15.18;;;11.32;;
81498;SDS011;70904;52.360;5.198;2023-07-09T09:40:44;16.17;;;10.80;;
81498;SDS011;70904;52.360;5.198;2023-07-09T09:43:19;14.80;;;11.82;;
81498;SDS011;70904;52.360;5.198;2023-07-09T09:45:47;13.48;;;10.82;;
81498;SDS011;70904;52.360;5.198;2023-07-09T09:48:16;14.57;;;12.70;;
81498;SDS011;70904;52.360;5.198;2023-07-09T09:51:05;12.45;;;10.82;;
81498;SDS011;70904;52.360;5.198;2023-07-09T09:53:34;15.02;;;10.48;;
81498;SDS011;70904;52.360;5.198;2023-07-09T09:56:04;13.80;;;12.48;;
81498;SDS011;70904;52.360;5.198;2023-07-09T09:58:31;14.02;;;12.60;;
81498;SDS011;70904;52.360;5.198;2023-07-09T10:00:57;12.20;;;9.95;;
81498;SDS011;70904;52.360;5.198;2023-07-09T10:03:37;13.02;;;11.38;;
81498;SDS011;70904;52.360;5.198;2023-07-09T10:06:15;14.60;;;12.27;;
81498;SDS011;70904;52.360;5.198;2023-07-09T10:11:23;10.75;;;9.05;;
81498;SDS011;70904;52.360;5.198;2023-07-09T10:13:55;9.48;;;8.38;;
81498;SDS011;70904;52.360;5.198;2023-07-09T10:16:27;8.95;;;7.88;;
81498;SDS011;70904;52.360;5.198;2023-07-09T10:24:31;8.38;;;6.38;;
81498;SDS011;70904;52.360;5.198;2023-07-09T10:27:11;7.97;;;5.93;;
81498;SDS011;70904;52.360;5.198;2023-07-09T10:30:02;9.45;;;5.40;;
81498;SDS011;70904;52.360;5.198;2023-07-09T10:35:47;8.80;;;5.03;;
81498;SDS011;70904;52.360;5.198;2023-07-09T10:38:24;9.65;;;5.25;;
81498;SDS011;70904;52.360;5.198;2023-07-09T10:41:00;7.97;;;5.25;;
81498;SDS011;70904;52.360;5.198;2023-07-09T10:43:36;8.20;;;5.28;;
81498;SDS011;70904;52.360;5.198;2023-07-09T10:46:05;18.73;;;5.60;;
81498;SDS011;70904;52.360;5.198;2023-07-09T10:48:39;9.68;;;6.25;;
81498;SDS011;70904;52.360;5.198;2023-07-09T10:51:29;11.75;;;7.50;;
81498;SDS011;70904;52.360;5.198;2023-07-09T10:53:58;9.82;;;7.00;;
81498;SDS011;70904;52.360;5.198;2023-07-09T10:56:30;10.68;;;8.63;;
81498;SDS011;70904;52.360;5.198;2023-07-09T11:02:04;10.98;;;8.02;;
81498;SDS011;70904;52.360;5.198;2023-07-09T11:04:49;7.18;;;5.28;;
81498;SDS011;70904;52.360;5.198;2023-07-09T11:07:58;7.15;;;5.07;;
81498;SDS011;70904;52.360;5.198;2023-07-09T11:10:29;5.97;;;4.18;;
81498;SDS011;70904;52.360;5.198;2023-07-09T11:12:59;6.60;;;4.28;;
81498;SDS011;70904;52.360;5.198;2023-07-09T11:15:55;6.65;;;4.03;;
81498;SDS011;70904;52.360;5.198;2023-07-09T11:18:26;7.30;;;4.40;;
81498;SDS011;70904;52.360;5.198;2023-07-09T11:21:05;8.82;;;4.82;;
81498;SDS011;70904;52.360;5.198;2023-07-09T11:23:50;5.88;;;4.50;;
81498;SDS011;70904;52.360;5.198;2023-07-09T11:26:25;7.28;;;4.25;;
81498;SDS011;70904;52.360;5.198;2023-07-09T11:29:14;5.93;;;4.60;;
81498;SDS011;70904;52.360;5.198;2023-07-09T11:31:43;7.03;;;3.90;;
81498;SDS011;70904;52.360;5.198;2023-07-09T11:36:46;6.30;;;4.68;;
81498;SDS011;70904;52.360;5.198;2023-07-09T11:39:28;5.78;;;4.47;;
81498;SDS011;70904;52.360;5.198;2023-07-09T11:41:54;6.72;;;4.03;;
81498;SDS011;70904;52.360;5.198;2023-07-09T11:52:28;9.93;;;5.03;;
81498;SDS011;70904;52.360;5.198;2023-07-09T11:57:54;9.00;;;4.95;;
81498;SDS011;70904;52.360;5.198;2023-07-09T12:00:19;7.85;;;4.90;;
81498;SDS011;70904;52.360;5.198;2023-07-09T12:02:45;16.42;;;5.88;;
81498;SDS011;70904;52.360;5.198;2023-07-09T12:05:10;8.45;;;4.50;;
81498;SDS011;70904;52.360;5.198;2023-07-09T12:07:37;6.80;;;4.57;;
81498;SDS011;70904;52.360;5.198;2023-07-09T12:10:03;7.82;;;5.03;;
81498;SDS011;70904;52.360;5.198;2023-07-09T12:12:41;8.40;;;5.57;;
81498;SDS011;70904;52.360;5.198;2023-07-09T12:15:49;7.50;;;4.93;;
81498;SDS011;70904;52.360;5.198;2023-07-09T12:20:31;8.45;;;5.40;;
81498;SDS011;70904;52.360;5.198;2023-07-09T12:22:59;9.32;;;6.20;;
81498;SDS011;70904;52.360;5.198;2023-07-09T12:25:26;7.32;;;4.80;;
81498;SDS011;70904;52.360;5.198;2023-07-09T12:27:54;9.07;;;5.28;;
81498;SDS011;70904;52.360;5.198;2023-07-09T12:30:20;9.00;;;5.00;;
81498;SDS011;70904;52.360;5.198;2023-07-09T12:32:46;8.57;;;5.63;;
81498;SDS011;70904;52.360;5.198;2023-07-09T12:35:15;6.75;;;4.97;;
81498;SDS011;70904;52.360;5.198;2023-07-09T12:37:41;8.18;;;4.90;;
81498;SDS011;70904;52.360;5.198;2023-07-09T12:40:30;6.50;;;4.68;;
81498;SDS011;70904;52.360;5.198;2023-07-09T12:42:55;5.20;;;4.30;;
81498;SDS011;70904;52.360;5.198;2023-07-09T12:45:22;5.32;;;4.15;;
81498;SDS011;70904;52.360;5.198;2023-07-09T12:47:48;6.22;;;4.32;;
81498;SDS011;70904;52.360;5.198;2023-07-09T12:50:19;5.65;;;4.35;;
81498;SDS011;70904;52.360;5.198;2023-07-09T12:52:50;5.95;;;4.07;;
81498;SDS011;70904;52.360;5.198;2023-07-09T12:55:20;5.87;;;4.20;;
81498;SDS011;70904;52.360;5.198;2023-07-09T12:57:47;9.00;;;5.03;;
81498;SDS011;70904;52.360;5.198;2023-07-09T13:00:16;6.30;;;4.50;;
81498;SDS011;70904;52.360;5.198;2023-07-09T13:02:42;6.40;;;4.28;;
81498;SDS011;70904;52.360;5.198;2023-07-09T13:05:21;6.93;;;4.55;;
81498;SDS011;70904;52.360;5.198;2023-07-09T13:07:49;6.95;;;5.03;;
81498;SDS011;70904;52.360;5.198;2023-07-09T13:10:24;6.53;;;4.70;;
81498;SDS011;70904;52.360;5.198;2023-07-09T13:12:55;8.32;;;4.63;;
81498;SDS011;70904;52.360;5.198;2023-07-09T13:15:27;8.13;;;4.78;;
81498;SDS011;70904;52.360;5.198;2023-07-09T13:18:01;5.60;;;4.05;;
81498;SDS011;70904;52.360;5.198;2023-07-09T13:20:29;5.70;;;4.70;;
81498;SDS011;70904;52.360;5.198;2023-07-09T13:22:55;7.20;;;4.60;;
81498;SDS011;70904;52.360;5.198;2023-07-09T13:25:21;6.07;;;4.38;;
81498;SDS011;70904;52.360;5.198;2023-07-09T13:27:47;6.32;;;3.63;;
81498;SDS011;70904;52.360;5.198;2023-07-09T13:30:12;6.40;;;3.95;;
81498;SDS011;70904;52.360;5.198;2023-07-09T13:32:38;6.20;;;3.17;;
81498;SDS011;70904;52.360;5.198;2023-07-09T13:35:12;6.28;;;3.25;;
81498;SDS011;70904;52.360;5.198;2023-07-09T13:40:47;10.32;;;3.80;;
81498;SDS011;70904;52.360;5.198;2023-07-09T13:43:36;9.02;;;3.75;;
81498;SDS011;70904;52.360;5.198;2023-07-09T13:46:01;7.43;;;4.40;;
81498;SDS011;70904;52.360;5.198;2023-07-09T13:48:29;10.52;;;4.57;;
81498;SDS011;70904;52.360;5.198;2023-07-09T13:50:56;12.63;;;4.72;;
81498;SDS011;70904;52.360;5.198;2023-07-09T13:53:23;7.05;;;3.83;;
81498;SDS011;70904;52.360;5.198;2023-07-09T13:55:51;8.48;;;4.40;;
81498;SDS011;70904;52.360;5.198;2023-07-09T13:58:18;8.50;;;4.13;;
81498;SDS011;70904;52.360;5.198;2023-07-09T14:00:45;11.30;;;4.53;;
81498;SDS011;70904;52.360;5.198;2023-07-09T14:03:17;9.13;;;4.15;;
81498;SDS011;70904;52.360;5.198;2023-07-09T14:05:48;13.05;;;4.47;;
81498;SDS011;70904;52.360;5.198;2023-07-09T14:08:14;9.40;;;3.88;;
81498;SDS011;70904;52.360;5.198;2023-07-09T14:10:39;11.18;;;4.57;;
81498;SDS011;70904;52.360;5.198;2023-07-09T14:13:05;9.00;;;4.20;;
81498;SDS011;70904;52.360;5.198;2023-07-09T14:15:34;8.35;;;4.35;;
81498;SDS011;70904;52.360;5.198;2023-07-09T14:17:59;15.23;;;4.43;;
81498;SDS011;70904;52.360;5.198;2023-07-09T14:20:24;10.70;;;4.33;;
81498;SDS011;70904;52.360;5.198;2023-07-09T14:22:50;11.10;;;5.10;;
81498;SDS011;70904;52.360;5.198;2023-07-09T14:25:20;10.18;;;4.13;;
81498;SDS011;70904;52.360;5.198;2023-07-09T14:27:51;9.23;;;4.10;;
81498;SDS011;70904;52.360;5.198;2023-07-09T14:30:19;16.13;;;4.80;;
81498;SDS011;70904;52.360;5.198;2023-07-09T14:32:47;12.15;;;5.22;;
81498;SDS011;70904;52.360;5.198;2023-07-09T14:35:16;10.02;;;4.80;;
81498;SDS011;70904;52.360;5.198;2023-07-09T14:37:47;12.48;;;5.50;;
81498;SDS011;70904;52.360;5.198;2023-07-09T14:40:14;17.50;;;6.10;;
81498;SDS011;70904;52.360;5.198;2023-07-09T14:42:41;12.52;;;5.43;;
81498;SDS011;70904;52.360;5.198;2023-07-09T14:45:20;12.43;;;5.72;;
81498;SDS011;70904;52.360;5.198;2023-07-09T14:47:48;11.40;;;6.30;;
81498;SDS011;70904;52.360;5.198;2023-07-09T14:50:14;15.32;;;7.35;;
81498;SDS011;70904;52.360;5.198;2023-07-09T14:52:40;12.20;;;6.18;;
81498;SDS011;70904;52.360;5.198;2023-07-09T14:55:18;12.02;;;6.30;;
81498;SDS011;70904;52.360;5.198;2023-07-09T14:57:45;12.90;;;5.90;;
81498;SDS011;70904;52.360;5.198;2023-07-09T15:00:12;11.40;;;7.47;;
81498;SDS011;70904;52.360;5.198;2023-07-09T15:02:51;13.48;;;6.60;;
81498;SDS011;70904;52.360;5.198;2023-07-09T15:05:22;12.48;;;6.78;;
81498;SDS011;70904;52.360;5.198;2023-07-09T15:07:49;13.05;;;6.80;;
81498;SDS011;70904;52.360;5.198;2023-07-09T15:10:16;9.50;;;5.78;;
81498;SDS011;70904;52.360;5.198;2023-07-09T15:12:47;14.70;;;6.43;;
81498;SDS011;70904;52.360;5.198;2023-07-09T15:15:15;21.70;;;9.40;;
81498;SDS011;70904;52.360;5.198;2023-07-09T15:17:45;29.00;;;10.43;;
81498;SDS011;70904;52.360;5.198;2023-07-09T15:20:25;18.73;;;8.68;;
81498;SDS011;70904;52.360;5.198;2023-07-09T15:22:52;15.63;;;8.15;;
81498;SDS011;70904;52.360;5.198;2023-07-09T15:25:22;10.07;;;6.07;;
81498;SDS011;70904;52.360;5.198;2023-07-09T15:27:49;7.45;;;5.10;;
81498;SDS011;70904;52.360;5.198;2023-07-09T15:30:16;10.43;;;5.43;;